sensor_id;sensor_type;location;lat;lon;timestamp;P1;durP1;ratioP1;P2;durP2;ratioP2
31182;SDS011;17813;0.000;0.000;2023-05-07T00:00:13;18.13;;;16.10;;
31182;SDS011;17813;0.000;0.000;2023-05-07T00:02:47;17.13;;;14.60;;
31182;SDS011;17813;0.000;0.000;2023-05-07T00:05:16;18.23;;;14.53;;
31182;SDS011;17813;0.000;0.000;2023-05-07T00:07:44;16.47;;;13.97;;
31182;SDS011;17813;0.000;0.000;2023-05-07T00:10:16;17.13;;;14.10;;
31182;SDS011;17813;0.000;0.000;2023-05-07T00:12:49;15.60;;;13.97;;
31182;SDS011;17813;0.000;0.000;2023-05-07T00:15:21;15.37;;;13.83;;
31182;SDS011;17813;0.000;0.000;2023-05-07T00:17:49;16.23;;;14.10;;
31182;SDS011;17813;0.000;0.000;2023-05-07T00:20:22;17.80;;;13.80;;
31182;SDS011;17813;0.000;0.000;2023-05-07T00:22:53;16.80;;;15.00;;
31182;SDS011;17813;0.000;0.000;2023-05-07T00:25:23;17.37;;;15.33;;
31182;SDS011;17813;0.000;0.000;2023-05-07T00:27:53;17.00;;;15.20;;
31182;SDS011;17813;0.000;0.000;2023-05-07T00:30:25;16.40;;;14.47;;
31182;SDS011;17813;0.000;0.000;2023-05-07T00:32:56;17.63;;;14.13;;
31182;SDS011;17813;0.000;0.000;2023-05-07T00:35:31;15.63;;;13.83;;
31182;SDS011;17813;0.000;0.000;2023-05-07T00:38:05;15.83;;;13.53;;
31182;SDS011;17813;0.000;0.000;2023-05-07T00:40:36;14.87;;;13.37;;
31182;SDS011;17813;0.000;0.000;2023-05-07T00:43:08;15.60;;;13.60;;
31182;SDS011;17813;0.000;0.000;2023-05-07T00:45:36;15.13;;;13.30;;
31182;SDS011;17813;0.000;0.000;2023-05-07T00:48:09;15.47;;;13.87;;
31182;SDS011;17813;0.000;0.000;2023-05-07T00:50:40;14.60;;;13.00;;
31182;SDS011;17813;0.000;0.000;2023-05-07T00:53:10;15.20;;;12.87;;
31182;SDS011;17813;0.000;0.000;2023-05-07T00:55:46;14.50;;;12.37;;
31182;SDS011;17813;0.000;0.000;2023-05-07T00:58:17;13.80;;;12.03;;
31182;SDS011;17813;0.000;0.000;2023-05-07T01:00:51;15.70;;;11.90;;
31182;SDS011;17813;0.000;0.000;2023-05-07T01:03:25;14.13;;;11.70;;
31182;SDS011;17813;0.000;0.000;2023-05-07T01:05:58;13.47;;;11.23;;
31182;SDS011;17813;0.000;0.000;2023-05-07T01:08:31;13.47;;;11.90;;
31182;SDS011;17813;0.000;0.000;2023-05-07T01:11:02;13.30;;;11.63;;
31182;SDS011;17813;0.000;0.000;2023-05-07T01:13:30;13.03;;;11.10;;
31182;SDS011;17813;0.000;0.000;2023-05-07T01:16:03;12.70;;;11.17;;
31182;SDS011;17813;0.000;0.000;2023-05-07T01:18:38;12.60;;;11.30;;
31182;SDS011;17813;0.000;0.000;2023-05-07T01:21:11;12.57;;;10.40;;
31182;SDS011;17813;0.000;0.000;2023-05-07T01:23:46;12.03;;;10.73;;
31182;SDS011;17813;0.000;0.000;2023-05-07T01:26:16;12.10;;;10.80;;
31182;SDS011;17813;0.000;0.000;2023-05-07T01:28:50;12.07;;;10.87;;
31182;SDS011;17813;0.000;0.000;2023-05-07T01:31:22;11.20;;;10.10;;
31182;SDS011;17813;0.000;0.000;2023-05-07T01:33:56;11.70;;;10.50;;
31182;SDS011;17813;0.000;0.000;2023-05-07T01:36:27;11.27;;;10.10;;
31182;SDS011;17813;0.000;0.000;2023-05-07T01:38:59;11.70;;;10.23;;
31182;SDS011;17813;0.000;0.000;2023-05-07T01:41:29;11.10;;;9.90;;
31182;SDS011;17813;0.000;0.000;2023-05-07T01:44:05;11.47;;;10.27;;
31182;SDS011;17813;0.000;0.000;2023-05-07T01:46:36;11.00;;;9.50;;
31182;SDS011;17813;0.000;0.000;2023-05-07T01:49:14;10.60;;;9.50;;
31182;SDS011;17813;0.000;0.000;2023-05-07T01:51:44;10.47;;;9.37;;
31182;SDS011;17813;0.000;0.000;2023-05-07T01:54:16;10.47;;;9.37;;
31182;SDS011;17813;0.000;0.000;2023-05-07T01:56:46;10.00;;;9.00;;
31182;SDS011;17813;0.000;0.000;2023-05-07T01:59:17;10.10;;;8.10;;
31182;SDS011;17813;0.000;0.000;2023-05-07T02:01:47;9.97;;;8.97;;
31182;SDS011;17813;0.000;0.000;2023-05-07T02:04:21;9.33;;;8.33;;
31182;SDS011;17813;0.000;0.000;2023-05-07T02:06:52;9.33;;;8.40;;
31182;SDS011;17813;0.000;0.000;2023-05-07T02:09:22;9.30;;;8.40;;
31182;SDS011;17813;0.000;0.000;2023-05-07T02:11:57;11.43;;;9.77;;
31182;SDS011;17813;0.000;0.000;2023-05-07T02:14:30;9.17;;;8.30;;
31182;SDS011;17813;0.000;0.000;2023-05-07T02:17:04;10.60;;;9.10;;
31182;SDS011;17813;0.000;0.000;2023-05-07T02:19:35;9.50;;;8.50;;
31182;SDS011;17813;0.000;0.000;2023-05-07T02:22:07;9.63;;;8.73;;
31182;SDS011;17813;0.000;0.000;2023-05-07T02:24:39;10.47;;;9.43;;
31182;SDS011;17813;0.000;0.000;2023-05-07T02:27:18;9.63;;;8.67;;
31182;SDS011;17813;0.000;0.000;2023-05-07T02:29:51;10.80;;;9.47;;
31182;SDS011;17813;0.000;0.000;2023-05-07T02:32:20;10.07;;;9.07;;
31182;SDS011;17813;0.000;0.000;2023-05-07T02:34:51;10.27;;;9.27;;
31182;SDS011;17813;0.000;0.000;2023-05-07T02:37:22;10.07;;;9.07;;
31182;SDS011;17813;0.000;0.000;2023-05-07T02:39:54;11.03;;;9.93;;
31182;SDS011;17813;0.000;0.000;2023-05-07T02:42:27;10.83;;;9.73;;
31182;SDS011;17813;0.000;0.000;2023-05-07T02:44:57;11.33;;;10.13;;
31182;SDS011;17813;0.000;0.000;2023-05-07T02:47:26;11.50;;;10.27;;
31182;SDS011;17813;0.000;0.000;2023-05-07T02:49:58;11.47;;;10.17;;
31182;SDS011;17813;0.000;0.000;2023-05-07T02:52:31;11.90;;;10.70;;
31182;SDS011;17813;0.000;0.000;2023-05-07T02:55:01;12.10;;;10.90;;
31182;SDS011;17813;0.000;0.000;2023-05-07T02:57:34;11.93;;;10.73;;
31182;SDS011;17813;0.000;0.000;2023-05-07T03:00:13;12.03;;;10.40;;
31182;SDS011;17813;0.000;0.000;2023-05-07T03:02:44;12.97;;;11.67;;
31182;SDS011;17813;0.000;0.000;2023-05-07T03:05:20;13.00;;;11.70;;
31182;SDS011;17813;0.000;0.000;2023-05-07T03:07:48;13.00;;;11.80;;
31182;SDS011;17813;0.000;0.000;2023-05-07T03:10:18;14.50;;;13.03;;
31182;SDS011;17813;0.000;0.000;2023-05-07T03:12:46;15.43;;;14.00;;
31182;SDS011;17813;0.000;0.000;2023-05-07T03:15:19;16.77;;;13.17;;
31182;SDS011;17813;0.000;0.000;2023-05-07T03:17:50;16.10;;;14.50;;
31182;SDS011;17813;0.000;0.000;2023-05-07T03:20:21;16.33;;;14.67;;
31182;SDS011;17813;0.000;0.000;2023-05-07T03:22:55;16.57;;;14.87;;
31182;SDS011;17813;0.000;0.000;2023-05-07T03:25:23;18.27;;;16.37;;
31182;SDS011;17813;0.000;0.000;2023-05-07T03:27:55;17.23;;;15.43;;
31182;SDS011;17813;0.000;0.000;2023-05-07T03:30:26;18.13;;;15.57;;
31182;SDS011;17813;0.000;0.000;2023-05-07T03:32:58;17.33;;;15.43;;
31182;SDS011;17813;0.000;0.000;2023-05-07T03:35:27;18.13;;;15.73;;
31182;SDS011;17813;0.000;0.000;2023-05-07T03:37:58;18.50;;;15.90;;
31182;SDS011;17813;0.000;0.000;2023-05-07T03:40:31;18.13;;;15.60;;
31182;SDS011;17813;0.000;0.000;2023-05-07T03:43:02;17.27;;;15.47;;
31182;SDS011;17813;0.000;0.000;2023-05-07T03:45:37;16.57;;;14.87;;
31182;SDS011;17813;0.000;0.000;2023-05-07T03:48:10;16.80;;;15.10;;
31182;SDS011;17813;0.000;0.000;2023-05-07T03:50:39;16.33;;;14.53;;
31182;SDS011;17813;0.000;0.000;2023-05-07T03:53:14;16.63;;;14.83;;
31182;SDS011;17813;0.000;0.000;2023-05-07T03:55:49;15.53;;;14.00;;
31182;SDS011;17813;0.000;0.000;2023-05-07T03:58:18;15.83;;;14.23;;
31182;SDS011;17813;0.000;0.000;2023-05-07T04:00:49;15.97;;;14.27;;
31182;SDS011;17813;0.000;0.000;2023-05-07T04:03:19;16.23;;;14.60;;
31182;SDS011;17813;0.000;0.000;2023-05-07T04:05:53;15.80;;;14.07;;
31182;SDS011;17813;0.000;0.000;2023-05-07T04:08:21;15.77;;;14.10;;
31182;SDS011;17813;0.000;0.000;2023-05-07T04:10:54;16.70;;;15.00;;
31182;SDS011;17813;0.000;0.000;2023-05-07T04:13:26;15.43;;;13.83;;
31182;SDS011;17813;0.000;0.000;2023-05-07T04:15:55;16.67;;;14.47;;
31182;SDS011;17813;0.000;0.000;2023-05-07T04:18:30;15.53;;;13.93;;
31182;SDS011;17813;0.000;0.000;2023-05-07T04:21:01;16.43;;;14.63;;
31182;SDS011;17813;0.000;0.000;2023-05-07T04:23:33;16.20;;;14.20;;
31182;SDS011;17813;0.000;0.000;2023-05-07T04:26:03;16.13;;;14.23;;
31182;SDS011;17813;0.000;0.000;2023-05-07T04:28:37;15.47;;;13.87;;
31182;SDS011;17813;0.000;0.000;2023-05-07T04:31:10;15.73;;;14.13;;
31182;SDS011;17813;0.000;0.000;2023-05-07T04:33:47;15.63;;;14.03;;
31182;SDS011;17813;0.000;0.000;2023-05-07T04:36:19;16.10;;;14.37;;
31182;SDS011;17813;0.000;0.000;2023-05-07T04:38:52;16.27;;;14.53;;
31182;SDS011;17813;0.000;0.000;2023-05-07T04:41:24;15.57;;;14.07;;
31182;SDS011;17813;0.000;0.000;2023-05-07T04:43:58;16.60;;;14.90;;
31182;SDS011;17813;0.000;0.000;2023-05-07T04:46:28;16.43;;;14.83;;
31182;SDS011;17813;0.000;0.000;2023-05-07T04:48:57;16.70;;;15.00;;
31182;SDS011;17813;0.000;0.000;2023-05-07T04:51:26;17.40;;;15.53;;
31182;SDS011;17813;0.000;0.000;2023-05-07T04:53:55;18.63;;;16.73;;
31182;SDS011;17813;0.000;0.000;2023-05-07T04:56:24;20.00;;;16.27;;
31182;SDS011;17813;0.000;0.000;2023-05-07T04:58:57;17.13;;;15.33;;
31182;SDS011;17813;0.000;0.000;2023-05-07T05:01:27;18.07;;;16.03;;
31182;SDS011;17813;0.000;0.000;2023-05-07T05:03:58;18.57;;;16.53;;
31182;SDS011;17813;0.000;0.000;2023-05-07T05:06:28;19.13;;;16.93;;
31182;SDS011;17813;0.000;0.000;2023-05-07T05:08:59;18.13;;;16.27;;
31182;SDS011;17813;0.000;0.000;2023-05-07T05:11:29;19.07;;;17.07;;
31182;SDS011;17813;0.000;0.000;2023-05-07T05:14:05;18.20;;;16.27;;
31182;SDS011;17813;0.000;0.000;2023-05-07T05:16:34;17.40;;;15.47;;
31182;SDS011;17813;0.000;0.000;2023-05-07T05:19:02;17.97;;;16.03;;
31182;SDS011;17813;0.000;0.000;2023-05-07T05:21:36;18.07;;;16.10;;
31182;SDS011;17813;0.000;0.000;2023-05-07T05:24:05;17.97;;;16.07;;
31182;SDS011;17813;0.000;0.000;2023-05-07T05:26:38;17.57;;;15.43;;
31182;SDS011;17813;0.000;0.000;2023-05-07T05:29:08;17.73;;;15.93;;
31182;SDS011;17813;0.000;0.000;2023-05-07T05:31:41;16.13;;;14.53;;
31182;SDS011;17813;0.000;0.000;2023-05-07T05:34:12;16.17;;;14.47;;
31182;SDS011;17813;0.000;0.000;2023-05-07T05:36:46;17.33;;;15.53;;
31182;SDS011;17813;0.000;0.000;2023-05-07T05:39:18;16.10;;;14.40;;
31182;SDS011;17813;0.000;0.000;2023-05-07T05:41:50;17.23;;;15.50;;
31182;SDS011;17813;0.000;0.000;2023-05-07T05:44:19;16.40;;;14.70;;
31182;SDS011;17813;0.000;0.000;2023-05-07T05:49:47;16.60;;;14.80;;
31182;SDS011;17813;0.000;0.000;2023-05-07T05:52:18;17.60;;;15.80;;
31182;SDS011;17813;0.000;0.000;2023-05-07T05:54:49;18.43;;;15.67;;
31182;SDS011;17813;0.000;0.000;2023-05-07T05:57:20;17.17;;;15.40;;
31182;SDS011;17813;0.000;0.000;2023-05-07T05:59:54;16.43;;;14.73;;
31182;SDS011;17813;0.000;0.000;2023-05-07T06:02:27;16.30;;;14.67;;
31182;SDS011;17813;0.000;0.000;2023-05-07T06:05:05;16.07;;;14.47;;
31182;SDS011;17813;0.000;0.000;2023-05-07T06:07:35;16.10;;;14.43;;
31182;SDS011;17813;0.000;0.000;2023-05-07T06:10:06;16.07;;;14.50;;
31182;SDS011;17813;0.000;0.000;2023-05-07T06:12:41;16.13;;;14.53;;
31182;SDS011;17813;0.000;0.000;2023-05-07T06:15:17;16.40;;;14.53;;
31182;SDS011;17813;0.000;0.000;2023-05-07T06:17:51;16.00;;;14.40;;
31182;SDS011;17813;0.000;0.000;2023-05-07T06:20:21;14.47;;;13.03;;
31182;SDS011;17813;0.000;0.000;2023-05-07T06:22:58;14.87;;;13.37;;
31182;SDS011;17813;0.000;0.000;2023-05-07T06:25:27;16.27;;;14.27;;
31182;SDS011;17813;0.000;0.000;2023-05-07T06:28:00;15.70;;;14.10;;
31182;SDS011;17813;0.000;0.000;2023-05-07T06:30:36;15.23;;;13.73;;
31182;SDS011;17813;0.000;0.000;2023-05-07T06:33:06;14.50;;;13.03;;
31182;SDS011;17813;0.000;0.000;2023-05-07T06:35:40;14.93;;;13.37;;
31182;SDS011;17813;0.000;0.000;2023-05-07T06:38:09;14.50;;;12.93;;
31182;SDS011;17813;0.000;0.000;2023-05-07T06:40:51;13.80;;;12.40;;
31182;SDS011;17813;0.000;0.000;2023-05-07T06:43:23;14.20;;;12.70;;
31182;SDS011;17813;0.000;0.000;2023-05-07T06:45:51;14.10;;;12.60;;
31182;SDS011;17813;0.000;0.000;2023-05-07T06:48:20;14.93;;;13.33;;
31182;SDS011;17813;0.000;0.000;2023-05-07T06:50:51;15.00;;;13.40;;
31182;SDS011;17813;0.000;0.000;2023-05-07T06:53:26;14.77;;;13.20;;
31182;SDS011;17813;0.000;0.000;2023-05-07T06:56:08;15.10;;;13.60;;
31182;SDS011;17813;0.000;0.000;2023-05-07T06:58:39;14.73;;;13.17;;
31182;SDS011;17813;0.000;0.000;2023-05-07T07:01:11;16.73;;;15.03;;
31182;SDS011;17813;0.000;0.000;2023-05-07T07:03:41;15.53;;;14.03;;
31182;SDS011;17813;0.000;0.000;2023-05-07T07:06:15;15.07;;;13.47;;
31182;SDS011;17813;0.000;0.000;2023-05-07T07:08:48;15.50;;;13.90;;
31182;SDS011;17813;0.000;0.000;2023-05-07T07:11:27;14.97;;;13.47;;
31182;SDS011;17813;0.000;0.000;2023-05-07T07:13:59;14.90;;;13.30;;
31182;SDS011;17813;0.000;0.000;2023-05-07T07:16:31;14.60;;;13.10;;
31182;SDS011;17813;0.000;0.000;2023-05-07T07:19:03;14.10;;;12.03;;
31182;SDS011;17813;0.000;0.000;2023-05-07T07:21:41;13.97;;;12.57;;
31182;SDS011;17813;0.000;0.000;2023-05-07T07:24:15;13.97;;;12.47;;
31182;SDS011;17813;0.000;0.000;2023-05-07T07:26:52;13.73;;;12.33;;
31182;SDS011;17813;0.000;0.000;2023-05-07T07:29:26;14.60;;;13.10;;
31182;SDS011;17813;0.000;0.000;2023-05-07T07:31:58;14.60;;;13.10;;
31182;SDS011;17813;0.000;0.000;2023-05-07T07:34:35;13.20;;;11.83;;
31182;SDS011;17813;0.000;0.000;2023-05-07T07:37:12;13.87;;;12.47;;
31182;SDS011;17813;0.000;0.000;2023-05-07T07:39:48;13.30;;;12.00;;
31182;SDS011;17813;0.000;0.000;2023-05-07T07:42:31;12.43;;;11.13;;
31182;SDS011;17813;0.000;0.000;2023-05-07T07:45:01;11.93;;;10.73;;
31182;SDS011;17813;0.000;0.000;2023-05-07T07:47:47;12.53;;;11.23;;
31182;SDS011;17813;0.000;0.000;2023-05-07T07:50:24;13.07;;;11.77;;
31182;SDS011;17813;0.000;0.000;2023-05-07T07:52:57;12.37;;;11.17;;
31182;SDS011;17813;0.000;0.000;2023-05-07T07:55:28;12.70;;;11.40;;
31182;SDS011;17813;0.000;0.000;2023-05-07T07:58:07;12.77;;;11.47;;
31182;SDS011;17813;0.000;0.000;2023-05-07T08:00:43;11.93;;;10.73;;
31182;SDS011;17813;0.000;0.000;2023-05-07T08:03:14;11.80;;;10.60;;
31182;SDS011;17813;0.000;0.000;2023-05-07T08:05:44;11.30;;;10.20;;
31182;SDS011;17813;0.000;0.000;2023-05-07T08:08:20;13.03;;;11.73;;
31182;SDS011;17813;0.000;0.000;2023-05-07T08:10:52;12.53;;;11.33;;
31182;SDS011;17813;0.000;0.000;2023-05-07T08:13:24;11.80;;;10.60;;
31182;SDS011;17813;0.000;0.000;2023-05-07T08:15:56;12.57;;;11.43;;
31182;SDS011;17813;0.000;0.000;2023-05-07T08:18:25;12.50;;;11.30;;
31182;SDS011;17813;0.000;0.000;2023-05-07T08:20:58;13.30;;;12.10;;
31182;SDS011;17813;0.000;0.000;2023-05-07T08:23:33;12.60;;;11.33;;
31182;SDS011;17813;0.000;0.000;2023-05-07T08:26:09;14.83;;;13.43;;
31182;SDS011;17813;0.000;0.000;2023-05-07T08:28:40;13.27;;;11.87;;
31182;SDS011;17813;0.000;0.000;2023-05-07T08:31:16;13.17;;;11.87;;
31182;SDS011;17813;0.000;0.000;2023-05-07T08:33:52;13.03;;;11.77;;
31182;SDS011;17813;0.000;0.000;2023-05-07T08:36:26;13.10;;;11.80;;
31182;SDS011;17813;0.000;0.000;2023-05-07T08:38:59;13.63;;;11.53;;
31182;SDS011;17813;0.000;0.000;2023-05-07T08:41:38;13.07;;;11.73;;
31182;SDS011;17813;0.000;0.000;2023-05-07T08:44:17;14.13;;;12.40;;
31182;SDS011;17813;0.000;0.000;2023-05-07T08:46:51;13.07;;;11.87;;
31182;SDS011;17813;0.000;0.000;2023-05-07T08:49:33;12.60;;;11.37;;
31182;SDS011;17813;0.000;0.000;2023-05-07T08:52:12;11.93;;;10.73;;
31182;SDS011;17813;0.000;0.000;2023-05-07T08:54:46;11.57;;;10.40;;
31182;SDS011;17813;0.000;0.000;2023-05-07T08:57:19;12.20;;;10.90;;
31182;SDS011;17813;0.000;0.000;2023-05-07T08:59:59;11.90;;;10.70;;
31182;SDS011;17813;0.000;0.000;2023-05-07T09:02:36;11.50;;;10.40;;
31182;SDS011;17813;0.000;0.000;2023-05-07T09:05:17;10.73;;;9.73;;
31182;SDS011;17813;0.000;0.000;2023-05-07T09:07:50;10.93;;;9.83;;
31182;SDS011;17813;0.000;0.000;2023-05-07T09:10:24;10.93;;;9.87;;
31182;SDS011;17813;0.000;0.000;2023-05-07T09:12:53;11.03;;;9.93;;
31182;SDS011;17813;0.000;0.000;2023-05-07T09:15:28;12.10;;;10.90;;
31182;SDS011;17813;0.000;0.000;2023-05-07T09:18:06;11.17;;;10.07;;
31182;SDS011;17813;0.000;0.000;2023-05-07T09:20:39;10.90;;;9.87;;
31182;SDS011;17813;0.000;0.000;2023-05-07T09:23:14;11.40;;;10.20;;
31182;SDS011;17813;0.000;0.000;2023-05-07T09:25:45;11.37;;;10.27;;
31182;SDS011;17813;0.000;0.000;2023-05-07T09:28:24;11.07;;;9.97;;
31182;SDS011;17813;0.000;0.000;2023-05-07T09:31:03;10.57;;;9.57;;
31182;SDS011;17813;0.000;0.000;2023-05-07T09:33:36;10.90;;;9.90;;
31182;SDS011;17813;0.000;0.000;2023-05-07T09:36:12;10.50;;;9.50;;
31182;SDS011;17813;0.000;0.000;2023-05-07T09:38:43;10.97;;;9.77;;
31182;SDS011;17813;0.000;0.000;2023-05-07T09:41:15;11.37;;;10.23;;
31182;SDS011;17813;0.000;0.000;2023-05-07T09:43:55;10.67;;;9.57;;
31182;SDS011;17813;0.000;0.000;2023-05-07T09:46:34;10.70;;;9.60;;
31182;SDS011;17813;0.000;0.000;2023-05-07T09:49:07;11.70;;;10.50;;
31182;SDS011;17813;0.000;0.000;2023-05-07T09:51:48;10.40;;;9.40;;
31182;SDS011;17813;0.000;0.000;2023-05-07T09:54:24;11.30;;;10.20;;
31182;SDS011;17813;0.000;0.000;2023-05-07T09:57:03;11.40;;;10.30;;
31182;SDS011;17813;0.000;0.000;2023-05-07T09:59:38;11.30;;;10.20;;
31182;SDS011;17813;0.000;0.000;2023-05-07T10:02:25;10.83;;;9.77;;
31182;SDS011;17813;0.000;0.000;2023-05-07T10:04:57;11.23;;;10.03;;
31182;SDS011;17813;0.000;0.000;2023-05-07T10:07:33;11.07;;;10.07;;
31182;SDS011;17813;0.000;0.000;2023-05-07T10:10:07;10.77;;;9.67;;
31182;SDS011;17813;0.000;0.000;2023-05-07T10:12:40;10.73;;;9.63;;
31182;SDS011;17813;0.000;0.000;2023-05-07T10:15:11;10.47;;;9.47;;
31182;SDS011;17813;0.000;0.000;2023-05-07T10:17:50;10.30;;;9.30;;
31182;SDS011;17813;0.000;0.000;2023-05-07T10:20:32;10.00;;;9.10;;
31182;SDS011;17813;0.000;0.000;2023-05-07T10:23:06;9.53;;;8.67;;
31182;SDS011;17813;0.000;0.000;2023-05-07T10:25:42;9.57;;;8.67;;
31182;SDS011;17813;0.000;0.000;2023-05-07T10:28:15;9.27;;;8.37;;
31182;SDS011;17813;0.000;0.000;2023-05-07T10:33:36;8.80;;;8.00;;
31182;SDS011;17813;0.000;0.000;2023-05-07T10:36:17;8.67;;;7.87;;
31182;SDS011;17813;0.000;0.000;2023-05-07T10:38:51;8.40;;;7.60;;
31182;SDS011;17813;0.000;0.000;2023-05-07T10:41:25;7.70;;;6.90;;
31182;SDS011;17813;0.000;0.000;2023-05-07T10:44:01;7.50;;;6.87;;
31182;SDS011;17813;0.000;0.000;2023-05-07T10:46:43;7.90;;;7.10;;
31182;SDS011;17813;0.000;0.000;2023-05-07T10:52:24;8.90;;;8.00;;
31182;SDS011;17813;0.000;0.000;2023-05-07T10:58:18;8.30;;;7.60;;
31182;SDS011;17813;0.000;0.000;2023-05-07T11:01:04;7.70;;;7.00;;
31182;SDS011;17813;0.000;0.000;2023-05-07T11:07:21;7.47;;;6.87;;
31182;SDS011;17813;0.000;0.000;2023-05-07T11:09:57;7.80;;;7.10;;
31182;SDS011;17813;0.000;0.000;2023-05-07T11:12:50;7.67;;;6.97;;
31182;SDS011;17813;0.000;0.000;2023-05-07T11:15:38;8.03;;;7.33;;
31182;SDS011;17813;0.000;0.000;2023-05-07T11:18:16;6.97;;;6.37;;
31182;SDS011;17813;0.000;0.000;2023-05-07T11:20:52;7.00;;;6.40;;
31182;SDS011;17813;0.000;0.000;2023-05-07T11:26:10;7.50;;;6.80;;
31182;SDS011;17813;0.000;0.000;2023-05-07T11:28:46;7.10;;;6.50;;
31182;SDS011;17813;0.000;0.000;2023-05-07T11:31:23;7.10;;;6.50;;
31182;SDS011;17813;0.000;0.000;2023-05-07T11:34:06;7.27;;;6.67;;
31182;SDS011;17813;0.000;0.000;2023-05-07T11:36:43;7.80;;;7.10;;
31182;SDS011;17813;0.000;0.000;2023-05-07T11:39:25;7.17;;;6.57;;
31182;SDS011;17813;0.000;0.000;2023-05-07T11:41:57;7.73;;;6.93;;
31182;SDS011;17813;0.000;0.000;2023-05-07T11:44:42;7.20;;;6.60;;
31182;SDS011;17813;0.000;0.000;2023-05-07T11:47:24;7.17;;;6.47;;
31182;SDS011;17813;0.000;0.000;2023-05-07T11:50:01;7.40;;;6.80;;
31182;SDS011;17813;0.000;0.000;2023-05-07T11:52:49;7.07;;;6.30;;
31182;SDS011;17813;0.000;0.000;2023-05-07T11:55:26;7.43;;;6.77;;
31182;SDS011;17813;0.000;0.000;2023-05-07T11:58:12;7.70;;;7.00;;
31182;SDS011;17813;0.000;0.000;2023-05-07T12:00:53;7.83;;;6.67;;
31182;SDS011;17813;0.000;0.000;2023-05-07T12:03:29;6.53;;;6.00;;
31182;SDS011;17813;0.000;0.000;2023-05-07T12:06:00;6.63;;;6.03;;
31182;SDS011;17813;0.000;0.000;2023-05-07T12:08:38;7.20;;;6.60;;
31182;SDS011;17813;0.000;0.000;2023-05-07T12:11:14;6.40;;;5.90;;
31182;SDS011;17813;0.000;0.000;2023-05-07T12:14:02;5.77;;;5.27;;
31182;SDS011;17813;0.000;0.000;2023-05-07T12:16:34;5.77;;;5.27;;
31182;SDS011;17813;0.000;0.000;2023-05-07T12:19:05;5.50;;;5.00;;
31182;SDS011;17813;0.000;0.000;2023-05-07T12:21:40;6.37;;;5.87;;
31182;SDS011;17813;0.000;0.000;2023-05-07T12:24:18;5.90;;;5.40;;
31182;SDS011;17813;0.000;0.000;2023-05-07T12:26:50;5.97;;;5.47;;
31182;SDS011;17813;0.000;0.000;2023-05-07T12:29:26;6.20;;;5.70;;
31182;SDS011;17813;0.000;0.000;2023-05-07T12:31:58;6.17;;;5.67;;
31182;SDS011;17813;0.000;0.000;2023-05-07T12:34:40;6.37;;;5.77;;
31182;SDS011;17813;0.000;0.000;2023-05-07T12:37:13;6.13;;;5.60;;
31182;SDS011;17813;0.000;0.000;2023-05-07T12:39:46;6.83;;;5.53;;
31182;SDS011;17813;0.000;0.000;2023-05-07T12:42:24;5.73;;;5.27;;
31182;SDS011;17813;0.000;0.000;2023-05-07T12:44:59;5.37;;;4.90;;
31182;SDS011;17813;0.000;0.000;2023-05-07T12:47:44;5.30;;;4.90;;
31182;SDS011;17813;0.000;0.000;2023-05-07T12:50:16;5.57;;;5.07;;
31182;SDS011;17813;0.000;0.000;2023-05-07T12:52:52;5.37;;;4.97;;
31182;SDS011;17813;0.000;0.000;2023-05-07T12:55:46;6.00;;;5.30;;
31182;SDS011;17813;0.000;0.000;2023-05-07T12:58:33;6.10;;;5.30;;
31182;SDS011;17813;0.000;0.000;2023-05-07T13:01:07;5.50;;;5.00;;
31182;SDS011;17813;0.000;0.000;2023-05-07T13:03:47;5.27;;;4.63;;
31182;SDS011;17813;0.000;0.000;2023-05-07T13:06:29;5.80;;;5.30;;
31182;SDS011;17813;0.000;0.000;2023-05-07T13:09:04;5.10;;;4.70;;
31182;SDS011;17813;0.000;0.000;2023-05-07T13:11:35;5.57;;;5.17;;
31182;SDS011;17813;0.000;0.000;2023-05-07T13:14:12;5.03;;;4.63;;
31182;SDS011;17813;0.000;0.000;2023-05-07T13:16:43;4.90;;;4.50;;
31182;SDS011;17813;0.000;0.000;2023-05-07T13:19:17;5.30;;;4.80;;
31182;SDS011;17813;0.000;0.000;2023-05-07T13:21:56;5.20;;;4.80;;
31182;SDS011;17813;0.000;0.000;2023-05-07T13:24:31;5.43;;;5.03;;
31182;SDS011;17813;0.000;0.000;2023-05-07T13:27:03;4.80;;;4.43;;
31182;SDS011;17813;0.000;0.000;2023-05-07T13:29:34;4.90;;;4.50;;
31182;SDS011;17813;0.000;0.000;2023-05-07T13:32:10;4.53;;;4.17;;
31182;SDS011;17813;0.000;0.000;2023-05-07T13:34:40;4.23;;;3.93;;
31182;SDS011;17813;0.000;0.000;2023-05-07T13:37:22;4.50;;;4.10;;
31182;SDS011;17813;0.000;0.000;2023-05-07T13:40:00;4.10;;;3.80;;
31182;SDS011;17813;0.000;0.000;2023-05-07T13:42:33;3.97;;;3.67;;
31182;SDS011;17813;0.000;0.000;2023-05-07T13:45:05;4.00;;;3.70;;
31182;SDS011;17813;0.000;0.000;2023-05-07T13:47:36;4.30;;;4.00;;
31182;SDS011;17813;0.000;0.000;2023-05-07T13:50:09;4.60;;;4.20;;
31182;SDS011;17813;0.000;0.000;2023-05-07T13:52:55;4.53;;;4.23;;
31182;SDS011;17813;0.000;0.000;2023-05-07T13:55:28;5.03;;;4.60;;
31182;SDS011;17813;0.000;0.000;2023-05-07T13:57:58;5.07;;;4.67;;
31182;SDS011;17813;0.000;0.000;2023-05-07T14:00:33;4.57;;;4.27;;
31182;SDS011;17813;0.000;0.000;2023-05-07T14:03:17;4.73;;;4.33;;
31182;SDS011;17813;0.000;0.000;2023-05-07T14:05:53;5.10;;;4.70;;
31182;SDS011;17813;0.000;0.000;2023-05-07T14:08:34;5.30;;;4.80;;
31182;SDS011;17813;0.000;0.000;2023-05-07T14:11:07;4.90;;;4.60;;
31182;SDS011;17813;0.000;0.000;2023-05-07T14:13:35;5.60;;;5.10;;
31182;SDS011;17813;0.000;0.000;2023-05-07T14:16:11;5.97;;;5.47;;
31182;SDS011;17813;0.000;0.000;2023-05-07T14:18:41;5.30;;;4.90;;
31182;SDS011;17813;0.000;0.000;2023-05-07T14:21:16;5.80;;;5.30;;
31182;SDS011;17813;0.000;0.000;2023-05-07T14:23:44;5.50;;;5.10;;
31182;SDS011;17813;0.000;0.000;2023-05-07T14:26:23;5.60;;;5.10;;
31182;SDS011;17813;0.000;0.000;2023-05-07T14:28:56;5.53;;;5.10;;
31182;SDS011;17813;0.000;0.000;2023-05-07T14:31:32;6.07;;;5.57;;
31182;SDS011;17813;0.000;0.000;2023-05-07T14:34:12;5.37;;;4.97;;
31182;SDS011;17813;0.000;0.000;2023-05-07T14:36:47;6.30;;;5.80;;
31182;SDS011;17813;0.000;0.000;2023-05-07T14:39:26;6.20;;;5.70;;
31182;SDS011;17813;0.000;0.000;2023-05-07T14:42:09;5.67;;;5.17;;
31182;SDS011;17813;0.000;0.000;2023-05-07T14:44:40;6.80;;;6.20;;
31182;SDS011;17813;0.000;0.000;2023-05-07T14:47:13;6.23;;;5.73;;
31182;SDS011;17813;0.000;0.000;2023-05-07T14:49:46;6.30;;;5.80;;
31182;SDS011;17813;0.000;0.000;2023-05-07T14:52:20;6.80;;;5.87;;
31182;SDS011;17813;0.000;0.000;2023-05-07T14:54:57;6.17;;;5.67;;
31182;SDS011;17813;0.000;0.000;2023-05-07T14:57:25;6.30;;;5.80;;
31182;SDS011;17813;0.000;0.000;2023-05-07T15:00:07;6.13;;;5.63;;
31182;SDS011;17813;0.000;0.000;2023-05-07T15:02:40;6.47;;;5.97;;
31182;SDS011;17813;0.000;0.000;2023-05-07T15:05:10;6.27;;;5.77;;
31182;SDS011;17813;0.000;0.000;2023-05-07T15:07:38;7.03;;;6.27;;
31182;SDS011;17813;0.000;0.000;2023-05-07T15:10:06;6.30;;;5.73;;
31182;SDS011;17813;0.000;0.000;2023-05-07T15:12:39;5.93;;;5.43;;
31182;SDS011;17813;0.000;0.000;2023-05-07T15:15:11;7.03;;;6.47;;
31182;SDS011;17813;0.000;0.000;2023-05-07T15:17:51;6.10;;;5.60;;
31182;SDS011;17813;0.000;0.000;2023-05-07T15:20:27;6.70;;;6.03;;
31182;SDS011;17813;0.000;0.000;2023-05-07T15:23:10;6.10;;;5.60;;
31182;SDS011;17813;0.000;0.000;2023-05-07T15:25:41;6.10;;;5.60;;
31182;SDS011;17813;0.000;0.000;2023-05-07T15:28:19;5.97;;;5.47;;
31182;SDS011;17813;0.000;0.000;2023-05-07T15:30:47;6.50;;;5.90;;
31182;SDS011;17813;0.000;0.000;2023-05-07T15:33:20;5.73;;;5.33;;
31182;SDS011;17813;0.000;0.000;2023-05-07T15:36:01;6.03;;;5.53;;
31182;SDS011;17813;0.000;0.000;2023-05-07T15:38:44;6.43;;;5.93;;
31182;SDS011;17813;0.000;0.000;2023-05-07T15:41:19;6.23;;;5.63;;
31182;SDS011;17813;0.000;0.000;2023-05-07T15:43:59;6.10;;;5.50;;